sensor_id;sensor_type;location;lat;lon;timestamp;pressure;altitude;pressure_sealevel;temperature;humidity
70833;BME280;58452;59.418;17.962;2023-03-04T00:01:17;100149.91;;;-0.21;45.61
70833;BME280;58452;59.418;17.962;2023-03-04T00:03:43;100139.94;;;-0.24;45.81
70833;BME280;58452;59.418;17.962;2023-03-04T00:06:08;100139.94;;;-0.24;45.92
70833;BME280;58452;59.418;17.962;2023-03-04T00:08:34;100142.94;;;-0.31;45.24
70833;BME280;58452;59.418;17.962;2023-03-04T00:10:59;100135.06;;;-0.27;45.65
70833;BME280;58452;59.418;17.962;2023-03-04T00:13:25;100133.59;;;-0.31;45.15
70833;BME280;58452;59.418;17.962;2023-03-04T00:15:51;100135.41;;;-0.33;45.15
70833;BME280;58452;59.418;17.962;2023-03-04T00:18:17;100135.69;;;-0.37;45.04
70833;BME280;58452;59.418;17.962;2023-03-04T00:20:47;100141.00;;;-0.42;44.83
70833;BME280;58452;59.418;17.962;2023-03-04T00:23:14;100140.81;;;-0.39;45.31
70833;BME280;58452;59.418;17.962;2023-03-04T00:25:40;100141.81;;;-0.41;45.54
70833;BME280;58452;59.418;17.962;2023-03-04T00:28:05;100137.72;;;-0.44;45.64
70833;BME280;58452;59.418;17.962;2023-03-04T00:30:31;100132.84;;;-0.47;45.88
70833;BME280;58452;59.418;17.962;2023-03-04T00:32:56;100129.84;;;-0.54;46.01
70833;BME280;58452;59.418;17.962;2023-03-04T00:35:22;100130.91;;;-0.58;46.19
70833;BME280;58452;59.418;17.962;2023-03-04T00:37:47;100128.19;;;-0.55;44.45
70833;BME280;58452;59.418;17.962;2023-03-04T00:40:12;100132.38;;;-0.54;45.32
70833;BME280;58452;59.418;17.962;2023-03-04T00:42:38;100129.13;;;-0.56;44.95
70833;BME280;58452;59.418;17.962;2023-03-04T00:45:04;100133.53;;;-0.59;44.62
70833;BME280;58452;59.418;17.962;2023-03-04T00:47:30;100133.88;;;-0.65;44.94
70833;BME280;58452;59.418;17.962;2023-03-04T00:49:55;100133.88;;;-0.65;45.38
70833;BME280;58452;59.418;17.962;2023-03-04T00:52:20;100129.97;;;-0.71;45.28
70833;BME280;58452;59.418;17.962;2023-03-04T00:54:46;100130.94;;;-0.73;45.96
70833;BME280;58452;59.418;17.962;2023-03-04T00:57:11;100122.63;;;-0.75;45.59
70833;BME280;58452;59.418;17.962;2023-03-04T00:59:37;100130.28;;;-0.77;46.15
70833;BME280;58452;59.418;17.962;2023-03-04T01:02:02;100127.69;;;-0.75;46.64
70833;BME280;58452;59.418;17.962;2023-03-04T01:04:28;100133.09;;;-0.81;46.63
70833;BME280;58452;59.418;17.962;2023-03-04T01:06:53;100126.88;;;-0.91;47.23
70833;BME280;58452;59.418;17.962;2023-03-04T01:09:19;100128.34;;;-0.87;46.70
70833;BME280;58452;59.418;17.962;2023-03-04T01:11:44;100128.19;;;-0.84;46.14
70833;BME280;58452;59.418;17.962;2023-03-04T01:14:10;100131.81;;;-0.88;46.15
70833;BME280;58452;59.418;17.962;2023-03-04T01:16:35;100131.94;;;-0.91;46.66
70833;BME280;58452;59.418;17.962;2023-03-04T01:19:01;100129.41;;;-0.91;47.13
70833;BME280;58452;59.418;17.962;2023-03-04T01:21:26;100140.78;;;-0.99;47.14
70833;BME280;58452;59.418;17.962;2023-03-04T01:23:52;100130.66;;;-0.99;46.91
70833;BME280;58452;59.418;17.962;2023-03-04T01:26:17;100136.06;;;-1.05;47.41
70833;BME280;58452;59.418;17.962;2023-03-04T01:28:43;100132.88;;;-1.08;47.42
70833;BME280;58452;59.418;17.962;2023-03-04T01:31:08;100132.88;;;-1.08;47.70
70833;BME280;58452;59.418;17.962;2023-03-04T01:33:34;100135.59;;;-1.11;47.18
70833;BME280;58452;59.418;17.962;2023-03-04T01:35:59;100132.22;;;-1.12;48.03
70833;BME280;58452;59.418;17.962;2023-03-04T01:38:25;100148.41;;;-1.14;47.56
70833;BME280;58452;59.418;17.962;2023-03-04T01:40:50;100129.22;;;-1.18;47.73
70833;BME280;58452;59.418;17.962;2023-03-04T01:43:36;100140.16;;;-1.18;47.02
70833;BME280;58452;59.418;17.962;2023-03-04T01:46:03;100119.97;;;-1.19;47.37
70833;BME280;58452;59.418;17.962;2023-03-04T01:48:38;100132.72;;;-1.21;46.86
70833;BME280;58452;59.418;17.962;2023-03-04T01:51:12;100127.81;;;-1.24;47.75
70833;BME280;58452;59.418;17.962;2023-03-04T01:53:38;100132.16;;;-1.26;46.71
70833;BME280;58452;59.418;17.962;2023-03-04T01:59:28;100118.09;;;-1.31;46.24
70833;BME280;58452;59.418;17.962;2023-03-04T02:01:57;100120.72;;;-1.33;44.98
70833;BME280;58452;59.418;17.962;2023-03-04T02:04:26;100126.59;;;-1.32;45.58
70833;BME280;58452;59.418;17.962;2023-03-04T02:06:52;100111.50;;;-1.34;45.60
70833;BME280;58452;59.418;17.962;2023-03-04T02:09:19;100121.19;;;-1.42;45.27
70833;BME280;58452;59.418;17.962;2023-03-04T02:11:46;100107.06;;;-1.46;44.97
70833;BME280;58452;59.418;17.962;2023-03-04T02:14:12;100131.50;;;-1.45;45.13
70833;BME280;58452;59.418;17.962;2023-03-04T02:16:39;100115.66;;;-1.49;45.55
70833;BME280;58452;59.418;17.962;2023-03-04T02:19:13;100110.59;;;-1.49;44.55
70833;BME280;58452;59.418;17.962;2023-03-04T02:21:40;100106.41;;;-1.50;44.45
70833;BME280;58452;59.418;17.962;2023-03-04T02:26:37;100126.00;;;-1.53;43.90
70833;BME280;58452;59.418;17.962;2023-03-04T02:29:06;100099.97;;;-1.55;43.37
70833;BME280;58452;59.418;17.962;2023-03-04T02:31:37;100094.00;;;-1.54;43.02
70833;BME280;58452;59.418;17.962;2023-03-04T02:36:35;100122.16;;;-1.60;43.62
70833;BME280;58452;59.418;17.962;2023-03-04T02:39:10;100128.22;;;-1.63;43.80
70833;BME280;58452;59.418;17.962;2023-03-04T02:41:36;100119.97;;;-1.66;43.86
70833;BME280;58452;59.418;17.962;2023-03-04T02:44:02;100126.97;;;-1.71;43.08
70833;BME280;58452;59.418;17.962;2023-03-04T02:46:27;100121.75;;;-1.68;43.38
70833;BME280;58452;59.418;17.962;2023-03-04T02:48:53;100127.72;;;-1.69;41.94
70833;BME280;58452;59.418;17.962;2023-03-04T02:51:19;100123.78;;;-1.75;41.38
70833;BME280;58452;59.418;17.962;2023-03-04T02:53:44;100136.19;;;-1.70;39.54
70833;BME280;58452;59.418;17.962;2023-03-04T02:56:10;100129.44;;;-1.70;39.25
70833;BME280;58452;59.418;17.962;2023-03-04T02:58:35;100131.13;;;-1.70;38.53
70833;BME280;58452;59.418;17.962;2023-03-04T03:01:03;100160.72;;;-1.72;38.52
70833;BME280;58452;59.418;17.962;2023-03-04T03:03:29;100126.81;;;-1.68;38.94
70833;BME280;58452;59.418;17.962;2023-03-04T03:05:54;100114.31;;;-1.71;38.40
70833;BME280;58452;59.418;17.962;2023-03-04T03:08:20;100117.25;;;-1.79;38.11
70833;BME280;58452;59.418;17.962;2023-03-04T03:10:45;100119.69;;;-1.77;37.50
70833;BME280;58452;59.418;17.962;2023-03-04T03:13:11;100118.38;;;-1.84;37.29
70833;BME280;58452;59.418;17.962;2023-03-04T03:15:36;100152.16;;;-1.85;37.58
70833;BME280;58452;59.418;17.962;2023-03-04T03:18:07;100133.84;;;-1.90;37.48
70833;BME280;58452;59.418;17.962;2023-03-04T03:20:33;100122.84;;;-1.89;38.29
70833;BME280;58452;59.418;17.962;2023-03-04T03:22:58;100117.34;;;-1.98;38.14
70833;BME280;58452;59.418;17.962;2023-03-04T03:25:23;100129.59;;;-2.06;38.04
70833;BME280;58452;59.418;17.962;2023-03-04T03:27:49;100120.38;;;-2.07;38.56
70833;BME280;58452;59.418;17.962;2023-03-04T03:30:15;100115.31;;;-2.07;37.83
70833;BME280;58452;59.418;17.962;2023-03-04T03:32:40;100109.50;;;-2.09;38.11
70833;BME280;58452;59.418;17.962;2023-03-04T03:35:06;100118.06;;;-2.11;38.58
70833;BME280;58452;59.418;17.962;2023-03-04T03:37:32;100107.50;;;-2.19;38.08
70833;BME280;58452;59.418;17.962;2023-03-04T03:39:57;100111.75;;;-2.20;38.92
70833;BME280;58452;59.418;17.962;2023-03-04T03:42:23;100102.56;;;-2.21;39.42
70833;BME280;58452;59.418;17.962;2023-03-04T03:44:48;100096.25;;;-2.29;38.78
70833;BME280;58452;59.418;17.962;2023-03-04T03:47:14;100097.72;;;-2.25;40.01
70833;BME280;58452;59.418;17.962;2023-03-04T03:49:40;100124.09;;;-2.31;40.36
70833;BME280;58452;59.418;17.962;2023-03-04T03:52:05;100105.84;;;-2.36;40.63
70833;BME280;58452;59.418;17.962;2023-03-04T03:54:32;100117.72;;;-2.38;40.21
70833;BME280;58452;59.418;17.962;2023-03-04T03:56:58;100144.78;;;-2.40;39.46
70833;BME280;58452;59.418;17.962;2023-03-04T03:59:23;100119.50;;;-2.40;39.68
70833;BME280;58452;59.418;17.962;2023-03-04T04:01:48;100117.88;;;-2.41;39.30
70833;BME280;58452;59.418;17.962;2023-03-04T04:04:14;100118.75;;;-2.42;39.72
70833;BME280;58452;59.418;17.962;2023-03-04T04:06:39;100123.50;;;-2.53;40.39
70833;BME280;58452;59.418;17.962;2023-03-04T04:09:05;100123.66;;;-2.56;40.12
70833;BME280;58452;59.418;17.962;2023-03-04T04:11:30;100122.31;;;-2.63;39.73
70833;BME280;58452;59.418;17.962;2023-03-04T04:13:56;100125.59;;;-2.61;39.31
70833;BME280;58452;59.418;17.962;2023-03-04T04:16:21;100121.06;;;-2.72;39.20
70833;BME280;58452;59.418;17.962;2023-03-04T04:18:46;100116.03;;;-2.72;38.19
70833;BME280;58452;59.418;17.962;2023-03-04T04:21:13;100106.28;;;-2.79;38.59
70833;BME280;58452;59.418;17.962;2023-03-04T04:23:38;100133.03;;;-2.75;38.57
70833;BME280;58452;59.418;17.962;2023-03-04T04:26:04;100129.13;;;-2.82;38.52
70833;BME280;58452;59.418;17.962;2023-03-04T04:28:29;100131.06;;;-2.87;38.49
70833;BME280;58452;59.418;17.962;2023-03-04T04:30:55;100126.03;;;-2.87;38.02
70833;BME280;58452;59.418;17.962;2023-03-04T04:33:20;100132.78;;;-2.88;38.42
70833;BME280;58452;59.418;17.962;2023-03-04T04:35:46;100129.53;;;-2.90;38.58
70833;BME280;58452;59.418;17.962;2023-03-04T04:38:11;100123.72;;;-2.92;38.44
70833;BME280;58452;59.418;17.962;2023-03-04T04:40:36;100126.31;;;-2.93;38.31
70833;BME280;58452;59.418;17.962;2023-03-04T04:43:02;100140.56;;;-2.92;38.71
70833;BME280;58452;59.418;17.962;2023-03-04T04:45:27;100125.72;;;-2.99;38.67
70833;BME280;58452;59.418;17.962;2023-03-04T04:47:54;100144.69;;;-3.09;38.27
70833;BME280;58452;59.418;17.962;2023-03-04T04:50:25;100152.94;;;-3.05;37.78
70833;BME280;58452;59.418;17.962;2023-03-04T04:52:51;100151.25;;;-3.05;38.18
70833;BME280;58452;59.418;17.962;2023-03-04T04:55:16;100138.47;;;-3.02;38.50
70833;BME280;58452;59.418;17.962;2023-03-04T04:57:42;100128.88;;;-3.12;38.38
70833;BME280;58452;59.418;17.962;2023-03-04T05:00:08;100141.25;;;-3.08;38.69
70833;BME280;58452;59.418;17.962;2023-03-04T05:02:34;100140.88;;;-3.17;38.68
70833;BME280;58452;59.418;17.962;2023-03-04T05:05:04;100154.66;;;-3.24;38.44
70833;BME280;58452;59.418;17.962;2023-03-04T05:07:29;100168.84;;;-3.22;38.76
70833;BME280;58452;59.418;17.962;2023-03-04T05:09:55;100141.50;;;-3.31;38.55
70833;BME280;58452;59.418;17.962;2023-03-04T05:12:20;100164.22;;;-3.31;38.39
70833;BME280;58452;59.418;17.962;2023-03-04T05:14:46;100167.47;;;-3.29;38.64
70833;BME280;58452;59.418;17.962;2023-03-04T05:17:11;100154.66;;;-3.24;38.13
70833;BME280;58452;59.418;17.962;2023-03-04T05:19:37;100159.03;;;-3.28;38.71
70833;BME280;58452;59.418;17.962;2023-03-04T05:22:02;100166.25;;;-3.39;39.52
70833;BME280;58452;59.418;17.962;2023-03-04T05:24:27;100169.78;;;-3.43;39.56
70833;BME280;58452;59.418;17.962;2023-03-04T05:26:53;100167.31;;;-3.45;39.57
70833;BME280;58452;59.418;17.962;2023-03-04T05:29:18;100175.81;;;-3.46;40.57
70833;BME280;58452;59.418;17.962;2023-03-04T05:31:44;100179.16;;;-3.45;39.68
70833;BME280;58452;59.418;17.962;2023-03-04T05:34:09;100175.81;;;-3.46;39.96
70833;BME280;58452;59.418;17.962;2023-03-04T05:36:35;100180.03;;;-3.46;39.64
70833;BME280;58452;59.418;17.962;2023-03-04T05:39:00;100180.25;;;-3.52;39.93
70833;BME280;58452;59.418;17.962;2023-03-04T05:41:26;100180.16;;;-3.49;40.28
70833;BME280;58452;59.418;17.962;2023-03-04T05:43:51;100185.44;;;-3.55;40.11
70833;BME280;58452;59.418;17.962;2023-03-04T05:46:17;100178.78;;;-3.56;39.99
70833;BME280;58452;59.418;17.962;2023-03-04T05:48:48;100197.47;;;-3.60;40.48
70833;BME280;58452;59.418;17.962;2023-03-04T05:51:13;100189.75;;;-3.57;40.85
70833;BME280;58452;59.418;17.962;2023-03-04T05:53:40;100187.38;;;-3.60;41.55
70833;BME280;58452;59.418;17.962;2023-03-04T05:56:09;100204.13;;;-3.59;40.97
70833;BME280;58452;59.418;17.962;2023-03-04T05:58:35;100187.38;;;-3.60;41.29
70833;BME280;58452;59.418;17.962;2023-03-04T06:01:02;100208.28;;;-3.58;42.59
70833;BME280;58452;59.418;17.962;2023-03-04T06:03:28;100200.59;;;-3.55;41.13
70833;BME280;58452;59.418;17.962;2023-03-04T06:05:53;100205.50;;;-3.52;41.43
70833;BME280;58452;59.418;17.962;2023-03-04T06:08:19;100208.09;;;-3.54;42.24
70833;BME280;58452;59.418;17.962;2023-03-04T06:10:44;100201.50;;;-3.56;42.01
70833;BME280;58452;59.418;17.962;2023-03-04T06:13:10;100211.31;;;-3.50;41.87
70833;BME280;58452;59.418;17.962;2023-03-04T06:15:36;100211.94;;;-3.45;42.37
70833;BME280;58452;59.418;17.962;2023-03-04T06:18:02;100210.66;;;-3.55;42.29
70833;BME280;58452;59.418;17.962;2023-03-04T06:20:28;100225.19;;;-3.60;43.01
70833;BME280;58452;59.418;17.962;2023-03-04T06:22:53;100216.63;;;-3.56;42.40
70833;BME280;58452;59.418;17.962;2023-03-04T06:25:19;100226.22;;;-3.64;43.02
70833;BME280;58452;59.418;17.962;2023-03-04T06:27:44;100229.59;;;-3.65;43.85
70833;BME280;58452;59.418;17.962;2023-03-04T06:30:10;100223.72;;;-3.66;43.08
70833;BME280;58452;59.418;17.962;2023-03-04T06:32:36;100233.13;;;-3.69;43.48
70833;BME280;58452;59.418;17.962;2023-03-04T06:35:01;100239.81;;;-3.68;42.72
70833;BME280;58452;59.418;17.962;2023-03-04T06:37:27;100238.53;;;-3.58;43.84
70833;BME280;58452;59.418;17.962;2023-03-04T06:39:52;100234.66;;;-3.65;43.51
70833;BME280;58452;59.418;17.962;2023-03-04T06:42:17;100236.28;;;-3.64;43.45
70833;BME280;58452;59.418;17.962;2023-03-04T06:45:21;100240.94;;;-3.55;43.82
70833;BME280;58452;59.418;17.962;2023-03-04T06:47:47;100251.56;;;-3.67;44.12
70833;BME280;58452;59.418;17.962;2023-03-04T06:50:13;100247.31;;;-3.67;44.56
70833;BME280;58452;59.418;17.962;2023-03-04T06:52:38;100246.50;;;-3.67;44.56
70833;BME280;58452;59.418;17.962;2023-03-04T06:55:04;100252.69;;;-3.74;44.93
70833;BME280;58452;59.418;17.962;2023-03-04T06:57:30;100258.53;;;-3.74;45.14
70833;BME280;58452;59.418;17.962;2023-03-04T06:59:56;100247.53;;;-3.71;45.17
70833;BME280;58452;59.418;17.962;2023-03-04T07:02:21;100257.38;;;-3.67;45.08
70833;BME280;58452;59.418;17.962;2023-03-04T07:04:47;100252.44;;;-3.68;45.46
70833;BME280;58452;59.418;17.962;2023-03-04T07:07:12;100255.50;;;-3.62;45.36
70833;BME280;58452;59.418;17.962;2023-03-04T07:09:38;100257.84;;;-3.57;45.37
70833;BME280;58452;59.418;17.962;2023-03-04T07:12:04;100255.13;;;-3.53;46.05
70833;BME280;58452;59.418;17.962;2023-03-04T07:14:29;100254.22;;;-3.52;45.84
70833;BME280;58452;59.418;17.962;2023-03-04T07:16:55;100264.63;;;-3.39;45.29
70833;BME280;58452;59.418;17.962;2023-03-04T07:19:21;100262.25;;;-3.42;45.22
70833;BME280;58452;59.418;17.962;2023-03-04T07:21:46;100263.63;;;-3.35;45.09
70833;BME280;58452;59.418;17.962;2023-03-04T07:24:12;100252.97;;;-3.41;45.57
70833;BME280;58452;59.418;17.962;2023-03-04T07:26:38;100276.22;;;-3.35;45.42
70833;BME280;58452;59.418;17.962;2023-03-04T07:29:04;100262.75;;;-3.34;44.81
70833;BME280;58452;59.418;17.962;2023-03-04T07:31:31;100268.53;;;-3.32;45.31
70833;BME280;58452;59.418;17.962;2023-03-04T07:34:02;100256.78;;;-3.33;45.11
70833;BME280;58452;59.418;17.962;2023-03-04T07:36:28;100257.41;;;-3.28;46.04
70833;BME280;58452;59.418;17.962;2023-03-04T07:38:54;100264.72;;;-3.22;45.17
70833;BME280;58452;59.418;17.962;2023-03-04T07:41:22;100268.94;;;-3.22;45.20
70833;BME280;58452;59.418;17.962;2023-03-04T07:43:47;100274.81;;;-3.22;45.13
70833;BME280;58452;59.418;17.962;2023-03-04T07:46:13;100267.88;;;-3.17;45.14
70833;BME280;58452;59.418;17.962;2023-03-04T07:48:39;100285.13;;;-3.08;44.61
70833;BME280;58452;59.418;17.962;2023-03-04T07:51:16;100277.53;;;-3.08;45.46
70833;BME280;58452;59.418;17.962;2023-03-04T07:53:44;100276.19;;;-3.15;45.10
70833;BME280;58452;59.418;17.962;2023-03-04T07:56:12;100272.25;;;-3.02;44.66
70833;BME280;58452;59.418;17.962;2023-03-04T07:58:38;100279.47;;;-3.13;44.29
70833;BME280;58452;59.418;17.962;2023-03-04T08:01:18;100289.44;;;-3.10;44.16
70833;BME280;58452;59.418;17.962;2023-03-04T08:03:44;100282.19;;;-2.99;44.61
70833;BME280;58452;59.418;17.962;2023-03-04T08:06:13;100280.16;;;-2.90;44.04
70833;BME280;58452;59.418;17.962;2023-03-04T08:08:39;100295.31;;;-2.90;43.90
70833;BME280;58452;59.418;17.962;2023-03-04T08:11:06;100304.28;;;-3.04;44.64
70833;BME280;58452;59.418;17.962;2023-03-04T08:13:32;100287.25;;;-2.99;45.00
70833;BME280;58452;59.418;17.962;2023-03-04T08:15:58;100285.88;;;-3.06;43.99
70833;BME280;58452;59.418;17.962;2023-03-04T08:18:24;100292.16;;;-2.96;44.42
70833;BME280;58452;59.418;17.962;2023-03-04T08:20:49;100287.78;;;-2.92;44.52
70833;BME280;58452;59.418;17.962;2023-03-04T08:23:16;100301.25;;;-2.91;43.92
70833;BME280;58452;59.418;17.962;2023-03-04T08:25:42;100302.75;;;-2.87;43.56
70833;BME280;58452;59.418;17.962;2023-03-04T08:28:08;100292.66;;;-2.87;44.39
70833;BME280;58452;59.418;17.962;2023-03-04T08:30:35;100305.81;;;-2.81;43.34
70833;BME280;58452;59.418;17.962;2023-03-04T08:33:02;100320.13;;;-2.81;44.15
70833;BME280;58452;59.418;17.962;2023-03-04T08:35:28;100316.19;;;-2.68;43.64
70833;BME280;58452;59.418;17.962;2023-03-04T08:37:53;100322.63;;;-2.61;43.86
70833;BME280;58452;59.418;17.962;2023-03-04T08:40:18;100316.06;;;-2.65;43.84
70833;BME280;58452;59.418;17.962;2023-03-04T08:42:44;100329.28;;;-2.60;45.11
70833;BME280;58452;59.418;17.962;2023-03-04T08:45:10;100338.16;;;-2.70;44.65
70833;BME280;58452;59.418;17.962;2023-03-04T08:47:36;100325.59;;;-2.53;44.62
70833;BME280;58452;59.418;17.962;2023-03-04T08:50:03;100325.53;;;-2.52;44.54
70833;BME280;58452;59.418;17.962;2023-03-04T08:52:29;100328.75;;;-2.48;44.44
70833;BME280;58452;59.418;17.962;2023-03-04T08:54:55;100323.84;;;-2.51;45.17
70833;BME280;58452;59.418;17.962;2023-03-04T08:57:20;100327.66;;;-2.42;45.53
70833;BME280;58452;59.418;17.962;2023-03-04T08:59:46;100329.94;;;-2.38;46.51
70833;BME280;58452;59.418;17.962;2023-03-04T09:02:12;100341.56;;;-2.34;46.58
70833;BME280;58452;59.418;17.962;2023-03-04T09:04:37;100347.44;;;-2.33;47.00
70833;BME280;58452;59.418;17.962;2023-03-04T09:07:03;100336.81;;;-2.40;47.61
70833;BME280;58452;59.418;17.962;2023-03-04T09:09:28;100336.50;;;-2.34;47.18
70833;BME280;58452;59.418;17.962;2023-03-04T09:11:54;100336.97;;;-2.26;47.39
70833;BME280;58452;59.418;17.962;2023-03-04T09:14:19;100337.81;;;-2.25;47.05
70833;BME280;58452;59.418;17.962;2023-03-04T09:16:44;100326.88;;;-2.26;46.61
70833;BME280;58452;59.418;17.962;2023-03-04T09:19:10;100342.25;;;-2.30;46.84
70833;BME280;58452;59.418;17.962;2023-03-04T09:21:35;100342.66;;;-2.21;47.03
70833;BME280;58452;59.418;17.962;2023-03-04T09:24:01;100329.09;;;-2.20;47.36
70833;BME280;58452;59.418;17.962;2023-03-04T09:26:28;100334.03;;;-2.17;46.38
70833;BME280;58452;59.418;17.962;2023-03-04T09:28:56;100318.59;;;-2.11;46.15
70833;BME280;58452;59.418;17.962;2023-03-04T09:31:22;100329.00;;;-2.17;45.98
70833;BME280;58452;59.418;17.962;2023-03-04T09:33:50;100314.34;;;-2.10;46.19
70833;BME280;58452;59.418;17.962;2023-03-04T09:36:16;100311.47;;;-2.03;46.04
70833;BME280;58452;59.418;17.962;2023-03-04T09:38:42;100310.84;;;-1.90;46.46
70833;BME280;58452;59.418;17.962;2023-03-04T09:41:15;100335.56;;;-1.78;45.31
70833;BME280;58452;59.418;17.962;2023-03-04T09:43:43;100328.19;;;-1.83;45.71
70833;BME280;58452;59.418;17.962;2023-03-04T09:46:11;100333.91;;;-1.79;46.30
70833;BME280;58452;59.418;17.962;2023-03-04T09:48:50;100323.22;;;-1.67;46.40
70833;BME280;58452;59.418;17.962;2023-03-04T09:54:31;100335.34;;;-1.57;46.33
70833;BME280;58452;59.418;17.962;2023-03-04T09:56:50;100348.09;;;-1.58;47.02
70833;BME280;58452;59.418;17.962;2023-03-04T09:59:25;100323.06;;;-1.64;47.07
70833;BME280;58452;59.418;17.962;2023-03-04T10:02:00;100321.81;;;-1.56;48.09
70833;BME280;58452;59.418;17.962;2023-03-04T10:04:40;100325.44;;;-1.44;47.87
70833;BME280;58452;59.418;17.962;2023-03-04T10:07:35;100323.94;;;-1.31;47.35
70833;BME280;58452;59.418;17.962;2023-03-04T10:10:06;100321.84;;;-1.23;47.79
70833;BME280;58452;59.418;17.962;2023-03-04T10:12:37;100331.81;;;-1.20;48.14
70833;BME280;58452;59.418;17.962;2023-03-04T10:17:55;100322.94;;;-1.11;48.92
70833;BME280;58452;59.418;17.962;2023-03-04T10:20:25;100324.59;;;-0.94;48.15
70833;BME280;58452;59.418;17.962;2023-03-04T10:23:09;100339.00;;;-0.79;48.08
70833;BME280;58452;59.418;17.962;2023-03-04T10:25:38;100322.50;;;-0.86;48.09
70833;BME280;58452;59.418;17.962;2023-03-04T10:28:19;100338.84;;;-0.76;48.59
70833;BME280;58452;59.418;17.962;2023-03-04T10:31:26;100329.72;;;-0.63;48.53
70833;BME280;58452;59.418;17.962;2023-03-04T10:33:54;100322.03;;;-0.62;48.34
70833;BME280;58452;59.418;17.962;2023-03-04T10:38:59;100330.16;;;-0.55;48.14
70833;BME280;58452;59.418;17.962;2023-03-04T10:41:28;100325.63;;;-0.50;48.71
70833;BME280;58452;59.418;17.962;2023-03-04T10:44:15;100334.38;;;-0.40;48.20
70833;BME280;58452;59.418;17.962;2023-03-04T10:46:46;100330.94;;;-0.39;48.57
70833;BME280;58452;59.418;17.962;2023-03-04T10:49:15;100329.06;;;-0.20;48.19
70833;BME280;58452;59.418;17.962;2023-03-04T10:54:39;100322.63;;;0.05;48.38
70833;BME280;58452;59.418;17.962;2023-03-04T11:00:01;100336.13;;;0.35;47.76
70833;BME280;58452;59.418;17.962;2023-03-04T11:02:32;100332.09;;;0.46;47.39
70833;BME280;58452;59.418;17.962;2023-03-04T11:07:30;100338.59;;;0.36;47.02
70833;BME280;58452;59.418;17.962;2023-03-04T11:10:06;100345.94;;;0.41;46.58
70833;BME280;58452;59.418;17.962;2023-03-04T11:12:33;100329.56;;;0.17;47.57
70833;BME280;58452;59.418;17.962;2023-03-04T11:15:00;100338.28;;;0.27;46.97
70833;BME280;58452;59.418;17.962;2023-03-04T11:17:39;100328.53;;;0.35;48.25
70833;BME280;58452;59.418;17.962;2023-03-04T11:20:25;100329.41;;;0.34;48.50
70833;BME280;58452;59.418;17.962;2023-03-04T11:22:55;100328.72;;;0.46;48.02
70833;BME280;58452;59.418;17.962;2023-03-04T11:25:35;100318.69;;;0.59;47.46
70833;BME280;58452;59.418;17.962;2023-03-04T11:28:05;100322.03;;;0.59;46.72
70833;BME280;58452;59.418;17.962;2023-03-04T11:30:51;100315.63;;;0.82;46.26
70833;BME280;58452;59.418;17.962;2023-03-04T11:33:31;100314.09;;;0.93;47.06
70833;BME280;58452;59.418;17.962;2023-03-04T11:38:41;100324.97;;;1.10;45.63
70833;BME280;58452;59.418;17.962;2023-03-04T11:41:55;100332.94;;;1.04;45.90
70833;BME280;58452;59.418;17.962;2023-03-04T11:44:00;100320.63;;;1.12;45.37
70833;BME280;58452;59.418;17.962;2023-03-04T11:57:54;100319.34;;;0.90;45.74
70833;BME280;58452;59.418;17.962;2023-03-04T12:14:22;100321.53;;;0.96;45.86
70833;BME280;58452;59.418;17.962;2023-03-04T12:27:38;100321.34;;;0.85;46.19
70833;BME280;58452;59.418;17.962;2023-03-04T12:35:36;100327.03;;;0.75;45.41
70833;BME280;58452;59.418;17.962;2023-03-04T12:41:17;100321.44;;;0.84;46.63
70833;BME280;58452;59.418;17.962;2023-03-04T12:43:55;100321.72;;;0.93;46.27
70833;BME280;58452;59.418;17.962;2023-03-04T12:52:35;100326.22;;;0.88;46.39
70833;BME280;58452;59.418;17.962;2023-03-04T12:55:01;100337.13;;;0.90;46.81
70833;BME280;58452;59.418;17.962;2023-03-04T12:57:28;100332.44;;;0.84;46.77
70833;BME280;58452;59.418;17.962;2023-03-04T13:05:43;100332.94;;;0.89;48.78
70833;BME280;58452;59.418;17.962;2023-03-04T13:08:31;100329.78;;;1.28;48.53
70833;BME280;58452;59.418;17.962;2023-03-04T13:14:06;100330.41;;;1.32;48.39
70833;BME280;58452;59.418;17.962;2023-03-04T13:16:37;100330.13;;;1.22;48.77
70833;BME280;58452;59.418;17.962;2023-03-04T13:22:28;100352.19;;;1.22;51.39
70833;BME280;58452;59.418;17.962;2023-03-04T13:24:56;100351.09;;;0.97;52.92
70833;BME280;58452;59.418;17.962;2023-03-04T13:27:47;100371.25;;;1.01;54.28
70833;BME280;58452;59.418;17.962;2023-03-04T13:35:47;100376.47;;;0.69;58.17
70833;BME280;58452;59.418;17.962;2023-03-04T13:53:54;100372.50;;;0.35;59.22
70833;BME280;58452;59.418;17.962;2023-03-04T13:56:26;100362.63;;;0.15;58.81
70833;BME280;58452;59.418;17.962;2023-03-04T14:04:28;100364.38;;;0.15;59.11
70833;BME280;58452;59.418;17.962;2023-03-04T14:06:54;100368.56;;;0.30;58.20
70833;BME280;58452;59.418;17.962;2023-03-04T14:09:30;100354.47;;;0.40;58.00
70833;BME280;58452;59.418;17.962;2023-03-04T14:11:58;100363.06;;;0.37;57.72
70833;BME280;58452;59.418;17.962;2023-03-04T14:14:50;100369.38;;;0.30;58.25
70833;BME280;58452;59.418;17.962;2023-03-04T14:17:20;100364.41;;;0.29;58.54
70833;BME280;58452;59.418;17.962;2023-03-04T14:19:47;100358.59;;;0.11;58.85
70833;BME280;58452;59.418;17.962;2023-03-04T14:22:24;100373.13;;;0.09;58.63
70833;BME280;58452;59.418;17.962;2023-03-04T14:24:58;100381.72;;;0.07;59.40
70833;BME280;58452;59.418;17.962;2023-03-04T14:27:24;100364.88;;;-0.10;59.48
70833;BME280;58452;59.418;17.962;2023-03-04T14:30:00;100365.69;;;-0.10;58.22
70833;BME280;58452;59.418;17.962;2023-03-04T14:32:27;100352.13;;;-0.09;58.37
70833;BME280;58452;59.418;17.962;2023-03-04T14:35:00;100355.19;;;-0.04;57.92
70833;BME280;58452;59.418;17.962;2023-03-04T14:37:35;100359.56;;;-0.06;57.01
70833;BME280;58452;59.418;17.962;2023-03-04T14:40:04;100345.97;;;-0.05;57.43
70833;BME280;58452;59.418;17.962;2023-03-04T14:42:38;100358.25;;;-0.13;57.28